sensor_id;sensor_type;location;lat;lon;timestamp;P1;durP1;ratioP1;P2;durP2;ratioP2
56005;SDS011;41888;44.696;10.522;2023-02-22T00:00:28;68.22;;;34.95;;
56005;SDS011;41888;44.696;10.522;2023-02-22T00:03:07;63.42;;;32.35;;
56005;SDS011;41888;44.696;10.522;2023-02-22T00:05:50;63.80;;;33.30;;
56005;SDS011;41888;44.696;10.522;2023-02-22T00:08:25;64.78;;;33.17;;
56005;SDS011;41888;44.696;10.522;2023-02-22T00:10:59;62.78;;;31.45;;
56005;SDS011;41888;44.696;10.522;2023-02-22T00:13:33;66.32;;;30.98;;
56005;SDS011;41888;44.696;10.522;2023-02-22T00:16:01;68.05;;;32.55;;
56005;SDS011;41888;44.696;10.522;2023-02-22T00:18:28;67.43;;;33.65;;
56005;SDS011;41888;44.696;10.522;2023-02-22T00:20:55;58.42;;;30.70;;
56005;SDS011;41888;44.696;10.522;2023-02-22T00:23:26;57.85;;;31.80;;
56005;SDS011;41888;44.696;10.522;2023-02-22T00:25:54;64.97;;;32.17;;
56005;SDS011;41888;44.696;10.522;2023-02-22T00:28:21;66.43;;;32.67;;
56005;SDS011;41888;44.696;10.522;2023-02-22T00:30:48;69.25;;;33.53;;
56005;SDS011;41888;44.696;10.522;2023-02-22T00:33:15;63.85;;;34.60;;
56005;SDS011;41888;44.696;10.522;2023-02-22T00:35:42;75.47;;;37.58;;
56005;SDS011;41888;44.696;10.522;2023-02-22T00:38:12;60.85;;;32.58;;
56005;SDS011;41888;44.696;10.522;2023-02-22T00:40:42;72.90;;;35.67;;
56005;SDS011;41888;44.696;10.522;2023-02-22T00:43:09;67.88;;;33.78;;
56005;SDS011;41888;44.696;10.522;2023-02-22T00:45:35;66.85;;;33.10;;
56005;SDS011;41888;44.696;10.522;2023-02-22T00:48:03;67.88;;;33.10;;
56005;SDS011;41888;44.696;10.522;2023-02-22T00:50:30;69.50;;;34.55;;
56005;SDS011;41888;44.696;10.522;2023-02-22T00:52:57;60.60;;;30.67;;
56005;SDS011;41888;44.696;10.522;2023-02-22T00:55:26;63.13;;;32.42;;
56005;SDS011;41888;44.696;10.522;2023-02-22T00:57:54;62.58;;;31.00;;
56005;SDS011;41888;44.696;10.522;2023-02-22T01:02:52;73.78;;;35.65;;
56005;SDS011;41888;44.696;10.522;2023-02-22T01:05:21;64.22;;;33.65;;
56005;SDS011;41888;44.696;10.522;2023-02-22T01:07:49;67.22;;;32.28;;
56005;SDS011;41888;44.696;10.522;2023-02-22T01:10:17;62.50;;;31.40;;
56005;SDS011;41888;44.696;10.522;2023-02-22T01:12:46;66.63;;;32.50;;
56005;SDS011;41888;44.696;10.522;2023-02-22T01:15:14;65.40;;;31.95;;
56005;SDS011;41888;44.696;10.522;2023-02-22T01:17:45;65.18;;;31.45;;
56005;SDS011;41888;44.696;10.522;2023-02-22T01:20:12;62.75;;;32.08;;
56005;SDS011;41888;44.696;10.522;2023-02-22T01:22:40;72.72;;;34.70;;
56005;SDS011;41888;44.696;10.522;2023-02-22T01:25:08;65.90;;;33.35;;
56005;SDS011;41888;44.696;10.522;2023-02-22T01:27:36;62.58;;;31.85;;
56005;SDS011;41888;44.696;10.522;2023-02-22T01:30:04;69.60;;;32.42;;
56005;SDS011;41888;44.696;10.522;2023-02-22T01:32:35;77.85;;;36.10;;
56005;SDS011;41888;44.696;10.522;2023-02-22T01:35:04;72.22;;;35.45;;
56005;SDS011;41888;44.696;10.522;2023-02-22T01:37:33;73.18;;;34.35;;
56005;SDS011;41888;44.696;10.522;2023-02-22T01:40:00;70.50;;;35.47;;
56005;SDS011;41888;44.696;10.522;2023-02-22T01:42:28;75.13;;;36.45;;
56005;SDS011;41888;44.696;10.522;2023-02-22T01:50:54;74.97;;;35.63;;
56005;SDS011;41888;44.696;10.522;2023-02-22T01:53:32;68.03;;;33.05;;
56005;SDS011;41888;44.696;10.522;2023-02-22T01:56:04;77.35;;;35.13;;
56005;SDS011;41888;44.696;10.522;2023-02-22T01:58:32;76.13;;;35.95;;
56005;SDS011;41888;44.696;10.522;2023-02-22T02:00:59;77.43;;;34.60;;
56005;SDS011;41888;44.696;10.522;2023-02-22T02:03:29;83.97;;;37.90;;
56005;SDS011;41888;44.696;10.522;2023-02-22T02:06:00;77.50;;;37.17;;
56005;SDS011;41888;44.696;10.522;2023-02-22T02:08:34;87.78;;;41.80;;
56005;SDS011;41888;44.696;10.522;2023-02-22T02:11:11;90.25;;;41.00;;
56005;SDS011;41888;44.696;10.522;2023-02-22T02:13:37;105.70;;;43.90;;
56005;SDS011;41888;44.696;10.522;2023-02-22T02:16:04;96.05;;;47.08;;
56005;SDS011;41888;44.696;10.522;2023-02-22T02:18:30;97.22;;;44.83;;
56005;SDS011;41888;44.696;10.522;2023-02-22T02:34:48;80.50;;;36.60;;
56005;SDS011;41888;44.696;10.522;2023-02-22T02:37:21;87.70;;;38.47;;
56005;SDS011;41888;44.696;10.522;2023-02-22T02:42:58;83.20;;;38.70;;
56005;SDS011;41888;44.696;10.522;2023-02-22T02:45:48;78.70;;;34.72;;
56005;SDS011;41888;44.696;10.522;2023-02-22T02:48:34;74.28;;;35.60;;
56005;SDS011;41888;44.696;10.522;2023-02-22T02:51:06;71.10;;;35.42;;
56005;SDS011;41888;44.696;10.522;2023-02-22T02:53:39;76.88;;;36.30;;
56005;SDS011;41888;44.696;10.522;2023-02-22T02:56:08;72.97;;;35.08;;
56005;SDS011;41888;44.696;10.522;2023-02-22T02:58:43;86.85;;;37.85;;
56005;SDS011;41888;44.696;10.522;2023-02-22T03:01:13;97.00;;;44.00;;
56005;SDS011;41888;44.696;10.522;2023-02-22T03:04:10;103.82;;;46.42;;
56005;SDS011;41888;44.696;10.522;2023-02-22T03:14:54;125.97;;;54.22;;
56005;SDS011;41888;44.696;10.522;2023-02-22T03:17:50;140.15;;;57.45;;
56005;SDS011;41888;44.696;10.522;2023-02-22T03:23:01;145.18;;;63.40;;
56005;SDS011;41888;44.696;10.522;2023-02-22T03:25:38;140.82;;;60.65;;
56005;SDS011;41888;44.696;10.522;2023-02-22T03:28:11;153.63;;;60.90;;
56005;SDS011;41888;44.696;10.522;2023-02-22T03:30:46;144.00;;;60.60;;
56005;SDS011;41888;44.696;10.522;2023-02-22T03:35:59;148.70;;;62.83;;
56005;SDS011;41888;44.696;10.522;2023-02-22T03:38:32;156.80;;;62.80;;
56005;SDS011;41888;44.696;10.522;2023-02-22T03:41:02;168.98;;;64.07;;
56005;SDS011;41888;44.696;10.522;2023-02-22T03:43:33;156.45;;;64.35;;
56005;SDS011;41888;44.696;10.522;2023-02-22T03:46:07;144.68;;;60.03;;
56005;SDS011;41888;44.696;10.522;2023-02-22T03:48:42;142.88;;;62.40;;
56005;SDS011;41888;44.696;10.522;2023-02-22T03:51:18;154.50;;;61.25;;
56005;SDS011;41888;44.696;10.522;2023-02-22T03:53:45;129.77;;;56.78;;
56005;SDS011;41888;44.696;10.522;2023-02-22T03:56:17;157.30;;;61.78;;
56005;SDS011;41888;44.696;10.522;2023-02-22T03:58:48;132.13;;;57.28;;
56005;SDS011;41888;44.696;10.522;2023-02-22T04:01:15;138.75;;;54.42;;
56005;SDS011;41888;44.696;10.522;2023-02-22T04:03:44;153.48;;;59.08;;
56005;SDS011;41888;44.696;10.522;2023-02-22T04:06:10;142.30;;;61.30;;
56005;SDS011;41888;44.696;10.522;2023-02-22T04:08:36;141.65;;;59.55;;
56005;SDS011;41888;44.696;10.522;2023-02-22T04:11:03;139.15;;;60.20;;
56005;SDS011;41888;44.696;10.522;2023-02-22T04:13:29;131.15;;;57.53;;
56005;SDS011;41888;44.696;10.522;2023-02-22T04:15:55;138.50;;;57.67;;
56005;SDS011;41888;44.696;10.522;2023-02-22T04:18:21;143.27;;;56.63;;
56005;SDS011;41888;44.696;10.522;2023-02-22T04:20:47;130.45;;;56.10;;
56005;SDS011;41888;44.696;10.522;2023-02-22T04:23:14;132.02;;;58.00;;
56005;SDS011;41888;44.696;10.522;2023-02-22T04:25:41;133.10;;;55.35;;
56005;SDS011;41888;44.696;10.522;2023-02-22T04:28:07;124.53;;;52.75;;
56005;SDS011;41888;44.696;10.522;2023-02-22T04:30:33;120.70;;;52.95;;
56005;SDS011;41888;44.696;10.522;2023-02-22T04:32:59;128.07;;;56.40;;
56005;SDS011;41888;44.696;10.522;2023-02-22T04:35:25;132.27;;;55.05;;
56005;SDS011;41888;44.696;10.522;2023-02-22T04:37:51;123.65;;;52.88;;
56005;SDS011;41888;44.696;10.522;2023-02-22T04:40:18;121.72;;;52.28;;
56005;SDS011;41888;44.696;10.522;2023-02-22T04:42:44;130.73;;;58.05;;
56005;SDS011;41888;44.696;10.522;2023-02-22T04:45:10;132.80;;;54.50;;
56005;SDS011;41888;44.696;10.522;2023-02-22T04:47:36;123.78;;;52.42;;
56005;SDS011;41888;44.696;10.522;2023-02-22T04:50:03;140.82;;;59.63;;
56005;SDS011;41888;44.696;10.522;2023-02-22T04:52:31;124.95;;;54.97;;
56005;SDS011;41888;44.696;10.522;2023-02-22T04:54:57;128.00;;;53.08;;
56005;SDS011;41888;44.696;10.522;2023-02-22T04:57:23;138.65;;;55.78;;
56005;SDS011;41888;44.696;10.522;2023-02-22T04:59:49;134.38;;;55.45;;
56005;SDS011;41888;44.696;10.522;2023-02-22T05:02:16;128.05;;;54.90;;
56005;SDS011;41888;44.696;10.522;2023-02-22T05:04:43;132.70;;;55.15;;
56005;SDS011;41888;44.696;10.522;2023-02-22T05:07:09;137.35;;;56.22;;
56005;SDS011;41888;44.696;10.522;2023-02-22T05:09:35;124.13;;;53.65;;
56005;SDS011;41888;44.696;10.522;2023-02-22T05:12:02;130.02;;;55.13;;
56005;SDS011;41888;44.696;10.522;2023-02-22T05:14:28;130.63;;;56.70;;
56005;SDS011;41888;44.696;10.522;2023-02-22T05:16:57;127.65;;;56.03;;
56005;SDS011;41888;44.696;10.522;2023-02-22T05:19:24;127.60;;;53.08;;
56005;SDS011;41888;44.696;10.522;2023-02-22T05:21:50;120.93;;;53.78;;
56005;SDS011;41888;44.696;10.522;2023-02-22T05:24:16;120.93;;;55.08;;
56005;SDS011;41888;44.696;10.522;2023-02-22T05:26:43;125.63;;;52.63;;
56005;SDS011;41888;44.696;10.522;2023-02-22T05:29:10;121.40;;;51.50;;
56005;SDS011;41888;44.696;10.522;2023-02-22T05:31:37;121.93;;;53.38;;
56005;SDS011;41888;44.696;10.522;2023-02-22T05:34:05;116.10;;;50.35;;
56005;SDS011;41888;44.696;10.522;2023-02-22T05:36:31;124.30;;;52.47;;
56005;SDS011;41888;44.696;10.522;2023-02-22T05:38:58;122.25;;;51.67;;
56005;SDS011;41888;44.696;10.522;2023-02-22T05:41:24;131.77;;;53.20;;
56005;SDS011;41888;44.696;10.522;2023-02-22T05:43:50;119.50;;;50.33;;
56005;SDS011;41888;44.696;10.522;2023-02-22T05:46:17;119.03;;;50.50;;
56005;SDS011;41888;44.696;10.522;2023-02-22T05:48:43;122.72;;;52.92;;
56005;SDS011;41888;44.696;10.522;2023-02-22T05:51:09;125.93;;;52.10;;
56005;SDS011;41888;44.696;10.522;2023-02-22T05:53:36;116.88;;;52.03;;
56005;SDS011;41888;44.696;10.522;2023-02-22T05:56:02;118.70;;;51.90;;
56005;SDS011;41888;44.696;10.522;2023-02-22T05:58:28;116.00;;;49.63;;
56005;SDS011;41888;44.696;10.522;2023-02-22T06:00:54;117.55;;;49.60;;
56005;SDS011;41888;44.696;10.522;2023-02-22T06:03:21;112.65;;;51.53;;
56005;SDS011;41888;44.696;10.522;2023-02-22T06:05:47;123.55;;;52.30;;
56005;SDS011;41888;44.696;10.522;2023-02-22T06:08:13;111.65;;;48.17;;
56005;SDS011;41888;44.696;10.522;2023-02-22T06:10:39;115.32;;;49.67;;
56005;SDS011;41888;44.696;10.522;2023-02-22T06:13:05;92.20;;;44.15;;
56005;SDS011;41888;44.696;10.522;2023-02-22T06:15:31;101.05;;;47.63;;
56005;SDS011;41888;44.696;10.522;2023-02-22T06:17:58;105.40;;;46.35;;
56005;SDS011;41888;44.696;10.522;2023-02-22T06:20:26;95.88;;;44.67;;
56005;SDS011;41888;44.696;10.522;2023-02-22T06:22:54;100.32;;;46.08;;
56005;SDS011;41888;44.696;10.522;2023-02-22T06:25:23;102.65;;;48.55;;
56005;SDS011;41888;44.696;10.522;2023-02-22T06:27:51;97.13;;;44.92;;
56005;SDS011;41888;44.696;10.522;2023-02-22T06:30:18;101.47;;;45.88;;
56005;SDS011;41888;44.696;10.522;2023-02-22T06:32:46;104.47;;;45.35;;
56005;SDS011;41888;44.696;10.522;2023-02-22T06:35:13;104.25;;;44.88;;
56005;SDS011;41888;44.696;10.522;2023-02-22T06:37:40;96.78;;;43.88;;
56005;SDS011;41888;44.696;10.522;2023-02-22T06:40:06;99.45;;;43.85;;
56005;SDS011;41888;44.696;10.522;2023-02-22T06:42:35;91.75;;;41.58;;
56005;SDS011;41888;44.696;10.522;2023-02-22T06:45:02;107.72;;;42.97;;
56005;SDS011;41888;44.696;10.522;2023-02-22T06:47:28;83.45;;;39.72;;
56005;SDS011;41888;44.696;10.522;2023-02-22T06:49:54;86.22;;;41.40;;
56005;SDS011;41888;44.696;10.522;2023-02-22T06:52:23;91.40;;;40.55;;
56005;SDS011;41888;44.696;10.522;2023-02-22T06:54:49;100.95;;;43.47;;
56005;SDS011;41888;44.696;10.522;2023-02-22T06:57:16;91.38;;;41.78;;
56005;SDS011;41888;44.696;10.522;2023-02-22T06:59:42;91.57;;;38.05;;
56005;SDS011;41888;44.696;10.522;2023-02-22T07:02:12;82.60;;;40.60;;
56005;SDS011;41888;44.696;10.522;2023-02-22T07:04:38;96.18;;;42.50;;
56005;SDS011;41888;44.696;10.522;2023-02-22T07:07:05;88.50;;;43.35;;
56005;SDS011;41888;44.696;10.522;2023-02-22T07:09:31;105.03;;;48.22;;
56005;SDS011;41888;44.696;10.522;2023-02-22T07:11:57;113.15;;;48.65;;
56005;SDS011;41888;44.696;10.522;2023-02-22T07:14:23;107.78;;;49.30;;
56005;SDS011;41888;44.696;10.522;2023-02-22T07:16:49;102.10;;;45.38;;
56005;SDS011;41888;44.696;10.522;2023-02-22T07:19:15;90.35;;;40.75;;
56005;SDS011;41888;44.696;10.522;2023-02-22T07:21:42;86.28;;;42.03;;
56005;SDS011;41888;44.696;10.522;2023-02-22T07:24:08;80.35;;;37.75;;
56005;SDS011;41888;44.696;10.522;2023-02-22T07:26:41;83.97;;;38.15;;
56005;SDS011;41888;44.696;10.522;2023-02-22T07:29:07;73.45;;;37.90;;
56005;SDS011;41888;44.696;10.522;2023-02-22T07:31:35;75.40;;;36.47;;
56005;SDS011;41888;44.696;10.522;2023-02-22T07:34:02;69.30;;;33.58;;
56005;SDS011;41888;44.696;10.522;2023-02-22T07:36:28;67.00;;;33.63;;
56005;SDS011;41888;44.696;10.522;2023-02-22T07:38:54;69.40;;;34.63;;
56005;SDS011;41888;44.696;10.522;2023-02-22T07:41:21;69.18;;;34.78;;
56005;SDS011;41888;44.696;10.522;2023-02-22T07:43:47;78.65;;;34.47;;
56005;SDS011;41888;44.696;10.522;2023-02-22T07:46:13;68.50;;;34.42;;
56005;SDS011;41888;44.696;10.522;2023-02-22T07:48:40;65.90;;;34.85;;
56005;SDS011;41888;44.696;10.522;2023-02-22T07:51:06;70.80;;;34.28;;
56005;SDS011;41888;44.696;10.522;2023-02-22T07:53:34;89.20;;;39.92;;
56005;SDS011;41888;44.696;10.522;2023-02-22T07:56:01;109.70;;;46.97;;
56005;SDS011;41888;44.696;10.522;2023-02-22T07:58:30;103.32;;;46.13;;
56005;SDS011;41888;44.696;10.522;2023-02-22T08:00:56;101.72;;;47.63;;
56005;SDS011;41888;44.696;10.522;2023-02-22T08:03:24;103.40;;;47.03;;
56005;SDS011;41888;44.696;10.522;2023-02-22T08:05:52;112.70;;;49.47;;
56005;SDS011;41888;44.696;10.522;2023-02-22T08:08:20;107.63;;;48.53;;
56005;SDS011;41888;44.696;10.522;2023-02-22T08:10:47;108.07;;;51.15;;
56005;SDS011;41888;44.696;10.522;2023-02-22T08:13:14;112.45;;;52.63;;
56005;SDS011;41888;44.696;10.522;2023-02-22T08:15:42;110.10;;;50.83;;
56005;SDS011;41888;44.696;10.522;2023-02-22T08:18:09;125.60;;;55.75;;
56005;SDS011;41888;44.696;10.522;2023-02-22T08:20:39;126.78;;;54.83;;
56005;SDS011;41888;44.696;10.522;2023-02-22T08:23:06;138.00;;;55.88;;
56005;SDS011;41888;44.696;10.522;2023-02-22T08:25:33;127.15;;;56.15;;
56005;SDS011;41888;44.696;10.522;2023-02-22T08:28:04;134.68;;;57.67;;
56005;SDS011;41888;44.696;10.522;2023-02-22T08:30:33;116.55;;;56.30;;
56005;SDS011;41888;44.696;10.522;2023-02-22T08:33:00;121.82;;;53.70;;
56005;SDS011;41888;44.696;10.522;2023-02-22T08:35:27;123.30;;;57.15;;
56005;SDS011;41888;44.696;10.522;2023-02-22T08:37:56;127.63;;;57.72;;
56005;SDS011;41888;44.696;10.522;2023-02-22T08:40:25;120.65;;;55.38;;
56005;SDS011;41888;44.696;10.522;2023-02-22T08:42:55;115.07;;;52.20;;
56005;SDS011;41888;44.696;10.522;2023-02-22T08:45:21;113.07;;;50.83;;
56005;SDS011;41888;44.696;10.522;2023-02-22T08:47:47;116.90;;;53.53;;
56005;SDS011;41888;44.696;10.522;2023-02-22T08:50:15;110.32;;;48.80;;
56005;SDS011;41888;44.696;10.522;2023-02-22T08:52:48;106.55;;;47.90;;
56005;SDS011;41888;44.696;10.522;2023-02-22T08:55:17;103.65;;;47.55;;
56005;SDS011;41888;44.696;10.522;2023-02-22T08:57:45;104.00;;;46.13;;
56005;SDS011;41888;44.696;10.522;2023-02-22T09:00:11;101.25;;;47.45;;
56005;SDS011;41888;44.696;10.522;2023-02-22T09:02:38;87.93;;;44.35;;
56005;SDS011;41888;44.696;10.522;2023-02-22T09:05:04;100.50;;;44.50;;
56005;SDS011;41888;44.696;10.522;2023-02-22T09:07:31;104.55;;;47.47;;
56005;SDS011;41888;44.696;10.522;2023-02-22T09:09:57;102.03;;;48.15;;
56005;SDS011;41888;44.696;10.522;2023-02-22T09:12:23;100.45;;;49.45;;
56005;SDS011;41888;44.696;10.522;2023-02-22T09:14:49;111.15;;;49.40;;
56005;SDS011;41888;44.696;10.522;2023-02-22T09:17:15;114.43;;;50.53;;
56005;SDS011;41888;44.696;10.522;2023-02-22T09:19:42;118.78;;;52.13;;
56005;SDS011;41888;44.696;10.522;2023-02-22T09:22:09;115.88;;;54.40;;
56005;SDS011;41888;44.696;10.522;2023-02-22T09:24:35;128.50;;;55.80;;
56005;SDS011;41888;44.696;10.522;2023-02-22T09:27:01;127.22;;;54.92;;
56005;SDS011;41888;44.696;10.522;2023-02-22T09:29:28;130.80;;;56.67;;
56005;SDS011;41888;44.696;10.522;2023-02-22T09:31:55;135.65;;;57.70;;
56005;SDS011;41888;44.696;10.522;2023-02-22T09:34:22;119.93;;;55.33;;
56005;SDS011;41888;44.696;10.522;2023-02-22T09:36:53;121.90;;;55.28;;
56005;SDS011;41888;44.696;10.522;2023-02-22T09:39:21;116.43;;;56.13;;
56005;SDS011;41888;44.696;10.522;2023-02-22T09:44:27;127.40;;;56.10;;
56005;SDS011;41888;44.696;10.522;2023-02-22T09:47:00;126.18;;;57.05;;
56005;SDS011;41888;44.696;10.522;2023-02-22T09:49:33;118.15;;;55.40;;
56005;SDS011;41888;44.696;10.522;2023-02-22T09:52:07;119.00;;;54.90;;
56005;SDS011;41888;44.696;10.522;2023-02-22T09:54:43;120.07;;;55.10;;
56005;SDS011;41888;44.696;10.522;2023-02-22T09:57:31;116.03;;;55.03;;
56005;SDS011;41888;44.696;10.522;2023-02-22T10:05:31;128.88;;;58.55;;
56005;SDS011;41888;44.696;10.522;2023-02-22T10:08:04;130.73;;;58.60;;
56005;SDS011;41888;44.696;10.522;2023-02-22T10:10:40;129.93;;;57.55;;
56005;SDS011;41888;44.696;10.522;2023-02-22T10:15:47;138.45;;;60.80;;
56005;SDS011;41888;44.696;10.522;2023-02-22T10:18:36;130.20;;;58.70;;
56005;SDS011;41888;44.696;10.522;2023-02-22T10:23:54;126.95;;;56.97;;
56005;SDS011;41888;44.696;10.522;2023-02-22T10:26:27;125.50;;;58.70;;
56005;SDS011;41888;44.696;10.522;2023-02-22T10:29:43;133.95;;;61.97;;
56005;SDS011;41888;44.696;10.522;2023-02-22T10:32:05;131.77;;;57.35;;
56005;SDS011;41888;44.696;10.522;2023-02-22T10:34:41;144.23;;;59.65;;
56005;SDS011;41888;44.696;10.522;2023-02-22T10:37:18;135.45;;;59.30;;
56005;SDS011;41888;44.696;10.522;2023-02-22T10:42:44;122.72;;;56.10;;
56005;SDS011;41888;44.696;10.522;2023-02-22T10:45:24;132.98;;;60.33;;
56005;SDS011;41888;44.696;10.522;2023-02-22T10:47:54;121.00;;;57.35;;
56005;SDS011;41888;44.696;10.522;2023-02-22T10:50:23;118.18;;;54.63;;
56005;SDS011;41888;44.696;10.522;2023-02-22T10:52:54;128.77;;;58.30;;
56005;SDS011;41888;44.696;10.522;2023-02-22T10:55:20;131.80;;;61.15;;
56005;SDS011;41888;44.696;10.522;2023-02-22T10:57:48;116.35;;;54.78;;
56005;SDS011;41888;44.696;10.522;2023-02-22T11:00:28;119.90;;;54.60;;
56005;SDS011;41888;44.696;10.522;2023-02-22T11:03:19;122.82;;;57.92;;
56005;SDS011;41888;44.696;10.522;2023-02-22T11:05:47;121.95;;;55.78;;
56005;SDS011;41888;44.696;10.522;2023-02-22T11:10:48;124.60;;;55.42;;
56005;SDS011;41888;44.696;10.522;2023-02-22T11:13:23;128.07;;;56.28;;
56005;SDS011;41888;44.696;10.522;2023-02-22T11:16:38;120.18;;;53.03;;
56005;SDS011;41888;44.696;10.522;2023-02-22T11:18:50;118.70;;;53.28;;
56005;SDS011;41888;44.696;10.522;2023-02-22T11:21:34;116.30;;;57.90;;
56005;SDS011;41888;44.696;10.522;2023-02-22T11:24:05;120.70;;;53.80;;
56005;SDS011;41888;44.696;10.522;2023-02-22T11:26:36;123.22;;;53.53;;
56005;SDS011;41888;44.696;10.522;2023-02-22T11:29:33;130.77;;;57.47;;
56005;SDS011;41888;44.696;10.522;2023-02-22T11:32:02;128.32;;;57.70;;
56005;SDS011;41888;44.696;10.522;2023-02-22T11:34:45;118.22;;;56.55;;
56005;SDS011;41888;44.696;10.522;2023-02-22T11:39:46;121.85;;;56.72;;
56005;SDS011;41888;44.696;10.522;2023-02-22T11:42:27;121.40;;;56.67;;
56005;SDS011;41888;44.696;10.522;2023-02-22T11:47:51;131.38;;;56.95;;
56005;SDS011;41888;44.696;10.522;2023-02-22T11:59:18;112.82;;;54.28;;
56005;SDS011;41888;44.696;10.522;2023-02-22T12:15:49;124.82;;;59.08;;
56005;SDS011;41888;44.696;10.522;2023-02-22T12:21:35;110.97;;;55.38;;
56005;SDS011;41888;44.696;10.522;2023-02-22T12:24:09;118.47;;;58.38;;
56005;SDS011;41888;44.696;10.522;2023-02-22T12:26:52;116.15;;;57.17;;
56005;SDS011;41888;44.696;10.522;2023-02-22T12:29:30;116.85;;;54.30;;
56005;SDS011;41888;44.696;10.522;2023-02-22T12:34:49;101.72;;;51.05;;
56005;SDS011;41888;44.696;10.522;2023-02-22T12:37:23;110.60;;;54.20;;
56005;SDS011;41888;44.696;10.522;2023-02-22T12:40:30;117.53;;;55.80;;
56005;SDS011;41888;44.696;10.522;2023-02-22T12:48:06;121.85;;;58.50;;
56005;SDS011;41888;44.696;10.522;2023-02-22T12:50:51;120.20;;;56.08;;
56005;SDS011;41888;44.696;10.522;2023-02-22T12:53:23;118.68;;;56.35;;
56005;SDS011;41888;44.696;10.522;2023-02-22T12:56:01;119.97;;;57.85;;
56005;SDS011;41888;44.696;10.522;2023-02-22T13:01:32;123.57;;;57.45;;
56005;SDS011;41888;44.696;10.522;2023-02-22T13:04:04;120.97;;;59.40;;
56005;SDS011;41888;44.696;10.522;2023-02-22T13:15:03;117.60;;;57.35;;
56005;SDS011;41888;44.696;10.522;2023-02-22T13:23:09;117.60;;;54.67;;
56005;SDS011;41888;44.696;10.522;2023-02-22T13:34:08;109.43;;;54.95;;
56005;SDS011;41888;44.696;10.522;2023-02-22T13:39:31;101.38;;;49.15;;
56005;SDS011;41888;44.696;10.522;2023-02-22T13:45:28;104.22;;;53.45;;
56005;SDS011;41888;44.696;10.522;2023-02-22T13:56:22;100.70;;;51.53;;
56005;SDS011;41888;44.696;10.522;2023-02-22T13:59:00;104.15;;;50.72;;
56005;SDS011;41888;44.696;10.522;2023-02-22T14:06:51;114.18;;;53.35;;
56005;SDS011;41888;44.696;10.522;2023-02-22T14:15:12;122.30;;;56.50;;
56005;SDS011;41888;44.696;10.522;2023-02-22T14:22:39;109.07;;;52.47;;
56005;SDS011;41888;44.696;10.522;2023-02-22T14:25:27;117.22;;;54.50;;
56005;SDS011;41888;44.696;10.522;2023-02-22T14:27:55;102.18;;;50.33;;
56005;SDS011;41888;44.696;10.522;2023-02-22T14:30:26;103.25;;;50.67;;
56005;SDS011;41888;44.696;10.522;2023-02-22T14:32:57;119.13;;;53.55;;
56005;SDS011;41888;44.696;10.522;2023-02-22T14:35:25;117.88;;;53.45;;
56005;SDS011;41888;44.696;10.522;2023-02-22T14:38:01;112.32;;;58.30;;
56005;SDS011;41888;44.696;10.522;2023-02-22T14:40:29;124.82;;;57.72;;
56005;SDS011;41888;44.696;10.522;2023-02-22T14:45:35;119.32;;;57.15;;
56005;SDS011;41888;44.696;10.522;2023-02-22T14:48:26;119.05;;;52.05;;
56005;SDS011;41888;44.696;10.522;2023-02-22T14:51:04;115.32;;;54.80;;
56005;SDS011;41888;44.696;10.522;2023-02-22T14:56:14;111.55;;;51.58;;
56005;SDS011;41888;44.696;10.522;2023-02-22T14:58:53;111.47;;;54.85;;
56005;SDS011;41888;44.696;10.522;2023-02-22T15:06:45;118.35;;;52.55;;
56005;SDS011;41888;44.696;10.522;2023-02-22T15:11:51;116.88;;;55.67;;
56005;SDS011;41888;44.696;10.522;2023-02-22T15:14:35;116.68;;;55.72;;
56005;SDS011;41888;44.696;10.522;2023-02-22T15:17:06;121.35;;;57.08;;
56005;SDS011;41888;44.696;10.522;2023-02-22T15:19:45;130.95;;;57.83;;
56005;SDS011;41888;44.696;10.522;2023-02-22T15:22:25;123.43;;;55.63;;
56005;SDS011;41888;44.696;10.522;2023-02-22T15:27:24;117.78;;;54.33;;
56005;SDS011;41888;44.696;10.522;2023-02-22T15:29:55;124.10;;;57.08;;
56005;SDS011;41888;44.696;10.522;2023-02-22T15:40:37;115.00;;;56.65;;
56005;SDS011;41888;44.696;10.522;2023-02-22T15:43:07;115.55;;;53.50;;
56005;SDS011;41888;44.696;10.522;2023-02-22T15:45:41;119.60;;;55.00;;
56005;SDS011;41888;44.696;10.522;2023-02-22T15:48:08;119.45;;;55.80;;
56005;SDS011;41888;44.696;10.522;2023-02-22T15:50:35;122.07;;;55.78;;
56005;SDS011;41888;44.696;10.522;2023-02-22T15:53:03;114.82;;;53.50;;
56005;SDS011;41888;44.696;10.522;2023-02-22T15:55:33;121.70;;;54.72;;
56005;SDS011;41888;44.696;10.522;2023-02-22T15:58:11;125.82;;;57.38;;
56005;SDS011;41888;44.696;10.522;2023-02-22T16:00:49;116.00;;;54.00;;
56005;SDS011;41888;44.696;10.522;2023-02-22T16:03:26;115.38;;;52.53;;
56005;SDS011;41888;44.696;10.522;2023-02-22T16:05:59;113.90;;;54.15;;
56005;SDS011;41888;44.696;10.522;2023-02-22T16:08:29;119.28;;;54.83;;
56005;SDS011;41888;44.696;10.522;2023-02-22T16:11:30;120.75;;;54.35;;
56005;SDS011;41888;44.696;10.522;2023-02-22T16:14:03;124.25;;;55.50;;
56005;SDS011;41888;44.696;10.522;2023-02-22T16:16:32;114.53;;;50.22;;
56005;SDS011;41888;44.696;10.522;2023-02-22T16:21:56;109.60;;;51.00;;
56005;SDS011;41888;44.696;10.522;2023-02-22T16:24:28;117.40;;;52.00;;
56005;SDS011;41888;44.696;10.522;2023-02-22T16:29:36;116.22;;;51.28;;
56005;SDS011;41888;44.696;10.522;2023-02-22T16:32:02;119.47;;;51.97;;
56005;SDS011;41888;44.696;10.522;2023-02-22T16:34:29;114.05;;;54.03;;
56005;SDS011;41888;44.696;10.522;2023-02-22T16:36:55;135.00;;;64.25;;
56005;SDS011;41888;44.696;10.522;2023-02-22T16:39:23;138.95;;;69.05;;
56005;SDS011;41888;44.696;10.522;2023-02-22T16:41:51;133.35;;;62.95;;
56005;SDS011;41888;44.696;10.522;2023-02-22T16:44:20;118.80;;;56.85;;
56005;SDS011;41888;44.696;10.522;2023-02-22T16:46:49;130.27;;;58.78;;
56005;SDS011;41888;44.696;10.522;2023-02-22T16:49:16;127.47;;;59.80;;
56005;SDS011;41888;44.696;10.522;2023-02-22T16:51:43;132.85;;;61.67;;
56005;SDS011;41888;44.696;10.522;2023-02-22T16:54:20;131.98;;;63.35;;
56005;SDS011;41888;44.696;10.522;2023-02-22T16:56:51;130.90;;;57.45;;
56005;SDS011;41888;44.696;10.522;2023-02-22T16:59:19;133.43;;;57.22;;
56005;SDS011;41888;44.696;10.522;2023-02-22T17:01:46;119.68;;;56.25;;
56005;SDS011;41888;44.696;10.522;2023-02-22T17:04:16;137.65;;;59.53;;
56005;SDS011;41888;44.696;10.522;2023-02-22T17:06:45;131.65;;;57.55;;
56005;SDS011;41888;44.696;10.522;2023-02-22T17:09:12;136.60;;;57.55;;
56005;SDS011;41888;44.696;10.522;2023-02-22T17:11:39;132.35;;;56.85;;
56005;SDS011;41888;44.696;10.522;2023-02-22T17:14:07;130.75;;;56.20;;
56005;SDS011;41888;44.696;10.522;2023-02-22T17:16:34;132.05;;;56.80;;
56005;SDS011;41888;44.696;10.522;2023-02-22T17:19:01;132.05;;;58.17;;